sensor_id;sensor_type;location;lat;lon;timestamp;pressure;altitude;pressure_sealevel;temperature;humidity
39891;BME280;25564;53.312;9.790;2023-11-25T00:01:15;99825.28;;;0.27;100.00
39891;BME280;25564;53.312;9.790;2023-11-25T00:03:46;99796.44;;;0.12;100.00
39891;BME280;25564;53.312;9.790;2023-11-25T00:06:18;99833.16;;;0.33;100.00
39891;BME280;25564;53.312;9.790;2023-11-25T00:08:51;99826.13;;;0.26;100.00
39891;BME280;25564;53.312;9.790;2023-11-25T00:11:23;99845.34;;;0.34;100.00
39891;BME280;25564;53.312;9.790;2023-11-25T00:14:00;99829.59;;;0.25;100.00
39891;BME280;25564;53.312;9.790;2023-11-25T00:16:31;99807.78;;;0.15;100.00
39891;BME280;25564;53.312;9.790;2023-11-25T00:19:03;99812.94;;;0.11;100.00
39891;BME280;25564;53.312;9.790;2023-11-25T00:21:37;99822.56;;;0.15;100.00
39891;BME280;25564;53.312;9.790;2023-11-25T00:24:08;99833.81;;;0.11;100.00
39891;BME280;25564;53.312;9.790;2023-11-25T00:26:40;99835.47;;;0.03;100.00
39891;BME280;25564;53.312;9.790;2023-11-25T00:29:11;99832.81;;;-0.05;100.00
39891;BME280;25564;53.312;9.790;2023-11-25T00:31:43;99812.59;;;-0.24;100.00
39891;BME280;25564;53.312;9.790;2023-11-25T00:34:15;99796.00;;;-0.32;100.00
39891;BME280;25564;53.312;9.790;2023-11-25T00:36:46;99821.28;;;-0.25;100.00
39891;BME280;25564;53.312;9.790;2023-11-25T00:39:18;99814.28;;;-0.29;100.00
39891;BME280;25564;53.312;9.790;2023-11-25T00:41:51;99839.63;;;-0.18;100.00
39891;BME280;25564;53.312;9.790;2023-11-25T00:44:22;99820.44;;;-0.23;100.00
39891;BME280;25564;53.312;9.790;2023-11-25T00:46:55;99832.69;;;-0.16;100.00
39891;BME280;25564;53.312;9.790;2023-11-25T00:49:26;99833.59;;;-0.14;100.00
39891;BME280;25564;53.312;9.790;2023-11-25T00:51:58;99838.84;;;-0.09;100.00
39891;BME280;25564;53.312;9.790;2023-11-25T00:54:29;99829.28;;;-0.09;100.00
39891;BME280;25564;53.312;9.790;2023-11-25T00:57:02;99826.59;;;-0.18;100.00
39891;BME280;25564;53.312;9.790;2023-11-25T00:59:33;99818.66;;;-0.27;100.00
39891;BME280;25564;53.312;9.790;2023-11-25T01:02:05;99827.44;;;-0.19;100.00
39891;BME280;25564;53.312;9.790;2023-11-25T01:04:39;99843.13;;;-0.16;100.00
39891;BME280;25564;53.312;9.790;2023-11-25T01:07:11;99823.88;;;-0.27;100.00
39891;BME280;25564;53.312;9.790;2023-11-25T01:09:42;99830.84;;;-0.26;100.00
39891;BME280;25564;53.312;9.790;2023-11-25T01:12:13;99843.94;;;-0.20;100.00
39891;BME280;25564;53.312;9.790;2023-11-25T01:14:46;99808.94;;;-0.42;100.00
39891;BME280;25564;53.312;9.790;2023-11-25T01:17:17;99812.38;;;-0.43;100.00
39891;BME280;25564;53.312;9.790;2023-11-25T01:19:49;99813.28;;;-0.41;100.00
39891;BME280;25564;53.312;9.790;2023-11-25T01:22:20;99854.28;;;-0.27;100.00
39891;BME280;25564;53.312;9.790;2023-11-25T01:24:52;99821.09;;;-0.41;100.00
39891;BME280;25564;53.312;9.790;2023-11-25T01:27:23;99829.78;;;-0.42;100.00
39891;BME280;25564;53.312;9.790;2023-11-25T01:29:55;99846.41;;;-0.32;100.00
39891;BME280;25564;53.312;9.790;2023-11-25T01:32:28;99832.47;;;-0.36;100.00
39891;BME280;25564;53.312;9.790;2023-11-25T01:35:00;99835.13;;;-0.29;100.00
39891;BME280;25564;53.312;9.790;2023-11-25T01:37:32;99837.72;;;-0.31;100.00
39891;BME280;25564;53.312;9.790;2023-11-25T01:40:05;99814.97;;;-0.44;100.00
39891;BME280;25564;53.312;9.790;2023-11-25T01:42:38;99812.34;;;-0.46;100.00
39891;BME280;25564;53.312;9.790;2023-11-25T01:45:09;99799.28;;;-0.50;100.00
39891;BME280;25564;53.312;9.790;2023-11-25T01:47:42;99834.19;;;-0.36;100.00
39891;BME280;25564;53.312;9.790;2023-11-25T01:50:14;99825.47;;;-0.38;100.00
39891;BME280;25564;53.312;9.790;2023-11-25T01:52:46;99807.06;;;-0.52;100.00
39891;BME280;25564;53.312;9.790;2023-11-25T01:55:19;99828.91;;;-0.42;100.00
39891;BME280;25564;53.312;9.790;2023-11-25T01:57:50;99840.25;;;-0.39;100.00
39891;BME280;25564;53.312;9.790;2023-11-25T02:00:22;99814.00;;;-0.52;100.00
39891;BME280;25564;53.312;9.790;2023-11-25T02:02:55;99842.88;;;-0.37;100.00
39891;BME280;25564;53.312;9.790;2023-11-25T02:05:28;99839.38;;;-0.39;100.00
39891;BME280;25564;53.312;9.790;2023-11-25T02:08:00;99830.69;;;-0.38;100.00
39891;BME280;25564;53.312;9.790;2023-11-25T02:10:32;99821.03;;;-0.47;100.00
39891;BME280;25564;53.312;9.790;2023-11-25T02:13:03;99825.41;;;-0.44;100.00
39891;BME280;25564;53.312;9.790;2023-11-25T02:15:39;99838.50;;;-0.38;100.00
39891;BME280;25564;53.312;9.790;2023-11-25T02:18:12;99839.41;;;-0.36;100.00
39891;BME280;25564;53.312;9.790;2023-11-25T02:20:43;99832.44;;;-0.37;100.00
39891;BME280;25564;53.312;9.790;2023-11-25T02:23:20;99793.16;;;-0.54;100.00
39891;BME280;25564;53.312;9.790;2023-11-25T02:25:55;99826.38;;;-0.35;100.00
39891;BME280;25564;53.312;9.790;2023-11-25T02:28:27;99823.75;;;-0.36;100.00
39891;BME280;25564;53.312;9.790;2023-11-25T02:30:58;99832.50;;;-0.31;100.00
39891;BME280;25564;53.312;9.790;2023-11-25T02:33:33;99803.75;;;-0.37;100.00
39891;BME280;25564;53.312;9.790;2023-11-25T02:36:07;99830.81;;;-0.29;100.00
39891;BME280;25564;53.312;9.790;2023-11-25T02:38:39;99791.53;;;-0.44;100.00
39891;BME280;25564;53.312;9.790;2023-11-25T02:41:10;99816.88;;;-0.31;100.00
39891;BME280;25564;53.312;9.790;2023-11-25T02:43:42;99822.13;;;-0.26;100.00
39891;BME280;25564;53.312;9.790;2023-11-25T02:46:13;99802.03;;;-0.38;100.00
39891;BME280;25564;53.312;9.790;2023-11-25T02:48:45;99817.81;;;-0.26;100.00
39891;BME280;25564;53.312;9.790;2023-11-25T02:51:16;99805.56;;;-0.31;100.00
39891;BME280;25564;53.312;9.790;2023-11-25T02:53:49;99812.59;;;-0.26;100.00
39891;BME280;25564;53.312;9.790;2023-11-25T02:56:20;99781.13;;;-0.41;100.00
39891;BME280;25564;53.312;9.790;2023-11-25T02:58:52;99811.72;;;-0.26;100.00
39891;BME280;25564;53.312;9.790;2023-11-25T03:01:23;99796.84;;;-0.35;100.00
39891;BME280;25564;53.312;9.790;2023-11-25T03:04:00;99786.38;;;-0.38;100.00
39891;BME280;25564;53.312;9.790;2023-11-25T03:06:36;99789.00;;;-0.38;100.00
39891;BME280;25564;53.312;9.790;2023-11-25T03:09:09;99803.03;;;-0.25;100.00
39891;BME280;25564;53.312;9.790;2023-11-25T03:11:44;99802.19;;;-0.23;100.00
39891;BME280;25564;53.312;9.790;2023-11-25T03:14:15;99771.63;;;-0.36;100.00
39891;BME280;25564;53.312;9.790;2023-11-25T03:16:48;99783.03;;;-0.26;100.00
39891;BME280;25564;53.312;9.790;2023-11-25T03:19:20;99794.41;;;-0.20;100.00
39891;BME280;25564;53.312;9.790;2023-11-25T03:21:52;99774.31;;;-0.28;100.00
39891;BME280;25564;53.312;9.790;2023-11-25T03:24:24;99779.59;;;-0.22;100.00
39891;BME280;25564;53.312;9.790;2023-11-25T03:26:55;99785.72;;;-0.19;100.00
39891;BME280;25564;53.312;9.790;2023-11-25T03:29:28;99795.41;;;-0.09;100.00
39891;BME280;25564;53.312;9.790;2023-11-25T03:31:59;99772.69;;;-0.19;100.00
39891;BME280;25564;53.312;9.790;2023-11-25T03:34:31;99769.28;;;-0.13;100.00
39891;BME280;25564;53.312;9.790;2023-11-25T03:37:02;99763.19;;;-0.12;100.00
39891;BME280;25564;53.312;9.790;2023-11-25T03:39:34;99761.47;;;-0.12;100.00
39891;BME280;25564;53.312;9.790;2023-11-25T03:42:07;99769.31;;;-0.09;100.00
39891;BME280;25564;53.312;9.790;2023-11-25T03:44:40;99778.09;;;-0.01;100.00
39891;BME280;25564;53.312;9.790;2023-11-25T03:47:11;99767.66;;;0.01;100.00
39891;BME280;25564;53.312;9.790;2023-11-25T03:49:44;99746.69;;;-0.13;100.00
39891;BME280;25564;53.312;9.790;2023-11-25T03:52:16;99769.41;;;0.05;100.00
39891;BME280;25564;53.312;9.790;2023-11-25T03:54:47;99744.09;;;-0.10;100.00
39891;BME280;25564;53.312;9.790;2023-11-25T03:57:19;99766.81;;;0.07;100.00
39891;BME280;25564;53.312;9.790;2023-11-25T03:59:52;99743.28;;;-0.04;100.00
39891;BME280;25564;53.312;9.790;2023-11-25T04:02:25;99732.84;;;-0.04;100.00
39891;BME280;25564;53.312;9.790;2023-11-25T04:04:56;99758.19;;;0.12;100.00
39891;BME280;25564;53.312;9.790;2023-11-25T04:07:28;99723.34;;;0.06;100.00
39891;BME280;25564;53.312;9.790;2023-11-25T04:10:00;99747.84;;;0.23;100.00
39891;BME280;25564;53.312;9.790;2023-11-25T04:12:45;99723.50;;;0.24;100.00
39891;BME280;25564;53.312;9.790;2023-11-25T04:15:18;99755.88;;;0.50;100.00
39891;BME280;25564;53.312;9.790;2023-11-25T04:17:51;99775.03;;;0.49;100.00
39891;BME280;25564;53.312;9.790;2023-11-25T04:20:23;99787.34;;;0.67;100.00
39891;BME280;25564;53.312;9.790;2023-11-25T04:23:03;99770.00;;;0.77;100.00
39891;BME280;25564;53.312;9.790;2023-11-25T04:25:38;99754.38;;;0.86;100.00
39891;BME280;25564;53.312;9.790;2023-11-25T04:28:11;99715.22;;;0.89;100.00
39891;BME280;25564;53.312;9.790;2023-11-25T04:30:43;99702.16;;;0.87;100.00
39891;BME280;25564;53.312;9.790;2023-11-25T04:33:14;99706.56;;;0.93;100.00
39891;BME280;25564;53.312;9.790;2023-11-25T04:35:45;99709.19;;;0.97;100.00
39891;BME280;25564;53.312;9.790;2023-11-25T04:38:17;99698.72;;;0.93;100.00
39891;BME280;25564;53.312;9.790;2023-11-25T04:40:49;99672.56;;;0.87;100.00
39891;BME280;25564;53.312;9.790;2023-11-25T04:43:21;99697.88;;;1.06;100.00
39891;BME280;25564;53.312;9.790;2023-11-25T04:45:52;99669.13;;;0.97;100.00
39891;BME280;25564;53.312;9.790;2023-11-25T04:48:24;99684.84;;;1.12;100.00
39891;BME280;25564;53.312;9.790;2023-11-25T04:50:55;99711.03;;;1.29;100.00
39891;BME280;25564;53.312;9.790;2023-11-25T04:53:26;99697.94;;;1.24;100.00
39891;BME280;25564;53.312;9.790;2023-11-25T04:55:58;99686.59;;;1.21;100.00
39891;BME280;25564;53.312;9.790;2023-11-25T04:58:29;99701.50;;;1.42;100.00
39891;BME280;25564;53.312;9.790;2023-11-25T05:01:00;99704.09;;;1.43;100.00
39891;BME280;25564;53.312;9.790;2023-11-25T05:03:32;99691.00;;;1.33;100.00
39891;BME280;25564;53.312;9.790;2023-11-25T05:06:08;99710.22;;;1.44;100.00
39891;BME280;25564;53.312;9.790;2023-11-25T05:08:40;99691.03;;;1.39;100.00
39891;BME280;25564;53.312;9.790;2023-11-25T05:11:13;99698.88;;;1.46;100.00
39891;BME280;25564;53.312;9.790;2023-11-25T05:13:44;99693.66;;;1.51;100.00
39891;BME280;25564;53.312;9.790;2023-11-25T05:16:16;99667.50;;;1.45;100.00
39891;BME280;25564;53.312;9.790;2023-11-25T05:18:48;99678.88;;;1.63;100.00
39891;BME280;25564;53.312;9.790;2023-11-25T05:21:19;99656.22;;;1.56;100.00
39891;BME280;25564;53.312;9.790;2023-11-25T05:23:52;99688.47;;;1.64;100.00
39891;BME280;25564;53.312;9.790;2023-11-25T05:26:23;99700.66;;;1.62;100.00
39891;BME280;25564;53.312;9.790;2023-11-25T05:28:55;99715.47;;;1.62;100.00
39891;BME280;25564;53.312;9.790;2023-11-25T05:31:26;99712.00;;;1.71;100.00
39891;BME280;25564;53.312;9.790;2023-11-25T05:34:01;99684.09;;;1.54;100.00
39891;BME280;25564;53.312;9.790;2023-11-25T05:36:34;99715.50;;;1.68;100.00
39891;BME280;25564;53.312;9.790;2023-11-25T05:39:06;99690.19;;;1.53;100.00
39891;BME280;25564;53.312;9.790;2023-11-25T05:41:41;99696.28;;;1.54;100.00
39891;BME280;25564;53.312;9.790;2023-11-25T05:44:14;99677.09;;;1.49;100.00
39891;BME280;25564;53.312;9.790;2023-11-25T05:46:45;99657.06;;;1.43;100.00
39891;BME280;25564;53.312;9.790;2023-11-25T05:49:17;99679.75;;;1.61;100.00
39891;BME280;25564;53.312;9.790;2023-11-25T05:51:48;99677.13;;;1.61;100.00
39891;BME280;25564;53.312;9.790;2023-11-25T05:54:22;99657.06;;;1.45;100.00
39891;BME280;25564;53.312;9.790;2023-11-25T05:56:53;99654.44;;;1.45;100.00
39891;BME280;25564;53.312;9.790;2023-11-25T05:59:25;99642.25;;;1.41;100.00
39891;BME280;25564;53.312;9.790;2023-11-25T06:01:56;99645.72;;;1.46;100.00
39891;BME280;25564;53.312;9.790;2023-11-25T06:04:28;99633.53;;;1.39;100.00
39891;BME280;25564;53.312;9.790;2023-11-25T06:06:59;99626.56;;;1.41;100.00
39891;BME280;25564;53.312;9.790;2023-11-25T06:09:30;99616.09;;;1.38;100.00
39891;BME280;25564;53.312;9.790;2023-11-25T06:12:03;99639.63;;;1.50;100.00
39891;BME280;25564;53.312;9.790;2023-11-25T06:14:34;99650.97;;;1.55;100.00
39891;BME280;25564;53.312;9.790;2023-11-25T06:17:07;99628.28;;;1.42;100.00
39891;BME280;25564;53.312;9.790;2023-11-25T06:19:39;99635.28;;;1.50;100.00
39891;BME280;25564;53.312;9.790;2023-11-25T06:22:14;99640.53;;;1.55;100.00
39891;BME280;25564;53.312;9.790;2023-11-25T06:24:45;99603.03;;;1.35;100.00
39891;BME280;25564;53.312;9.790;2023-11-25T06:27:16;99620.47;;;1.51;100.00
39891;BME280;25564;53.312;9.790;2023-11-25T06:29:51;99638.78;;;1.57;100.00
39891;BME280;25564;53.312;9.790;2023-11-25T06:32:23;99607.38;;;1.29;100.00
39891;BME280;25564;53.312;9.790;2023-11-25T06:34:57;99638.75;;;1.45;100.00
39891;BME280;25564;53.312;9.790;2023-11-25T06:37:29;99637.03;;;1.51;100.00
39891;BME280;25564;53.312;9.790;2023-11-25T06:40:01;99661.47;;;1.70;100.00
39891;BME280;25564;53.312;9.790;2023-11-25T06:42:34;99645.75;;;1.61;100.00
39891;BME280;25564;53.312;9.790;2023-11-25T06:45:06;99649.25;;;1.69;100.00
39891;BME280;25564;53.312;9.790;2023-11-25T06:47:37;99621.34;;;1.63;100.00
39891;BME280;25564;53.312;9.790;2023-11-25T06:50:10;99625.72;;;1.64;100.00
39891;BME280;25564;53.312;9.790;2023-11-25T06:52:42;99614.38;;;1.49;100.00
39891;BME280;25564;53.312;9.790;2023-11-25T06:55:14;99616.97;;;1.40;100.00
39891;BME280;25564;53.312;9.790;2023-11-25T06:57:48;99624.81;;;1.40;100.00
39891;BME280;25564;53.312;9.790;2023-11-25T07:00:21;99595.16;;;1.19;100.00
39891;BME280;25564;53.312;9.790;2023-11-25T07:02:53;99625.66;;;1.31;100.00
39891;BME280;25564;53.312;9.790;2023-11-25T07:05:25;99616.03;;;1.13;100.00
39891;BME280;25564;53.312;9.790;2023-11-25T07:07:59;99639.59;;;1.25;100.00
39891;BME280;25564;53.312;9.790;2023-11-25T07:10:30;99623.88;;;1.15;100.00
39891;BME280;25564;53.312;9.790;2023-11-25T07:13:06;99625.59;;;1.10;100.00
39891;BME280;25564;53.312;9.790;2023-11-25T07:15:37;99618.66;;;1.15;100.00
39891;BME280;25564;53.312;9.790;2023-11-25T07:18:08;99619.56;;;1.30;100.00
39891;BME280;25564;53.312;9.790;2023-11-25T07:20:40;99628.28;;;1.31;100.00
39891;BME280;25564;53.312;9.790;2023-11-25T07:23:12;99613.47;;;1.30;100.00
39891;BME280;25564;53.312;9.790;2023-11-25T07:25:44;99656.19;;;1.55;100.00
39891;BME280;25564;53.312;9.790;2023-11-25T07:28:16;99654.47;;;1.63;100.00
39891;BME280;25564;53.312;9.790;2023-11-25T07:31:00;99626.59;;;1.59;100.00
39891;BME280;25564;53.312;9.790;2023-11-25T07:33:32;99599.53;;;1.43;100.00
39891;BME280;25564;53.312;9.790;2023-11-25T07:36:04;99592.56;;;1.42;100.00
39891;BME280;25564;53.312;9.790;2023-11-25T07:38:35;99635.31;;;1.70;100.00
39891;BME280;25564;53.312;9.790;2023-11-25T07:41:15;99613.50;;;1.70;100.00
39891;BME280;25564;53.312;9.790;2023-11-25T07:43:46;99625.72;;;1.87;100.00
39891;BME280;25564;53.312;9.790;2023-11-25T07:46:17;99611.78;;;1.93;100.00
39891;BME280;25564;53.312;9.790;2023-11-25T07:48:50;99633.53;;;2.15;100.00
39891;BME280;25564;53.312;9.790;2023-11-25T07:51:21;99610.03;;;2.03;100.00
39891;BME280;25564;53.312;9.790;2023-11-25T07:53:53;99622.19;;;2.19;100.00
39891;BME280;25564;53.312;9.790;2023-11-25T07:56:24;99599.50;;;2.13;100.00
39891;BME280;25564;53.312;9.790;2023-11-25T07:58:56;99581.19;;;2.15;100.00
39891;BME280;25564;53.312;9.790;2023-11-25T08:01:30;99628.22;;;2.51;100.00
39891;BME280;25564;53.312;9.790;2023-11-25T08:04:03;99628.19;;;2.60;100.00
39891;BME280;25564;53.312;9.790;2023-11-25T08:06:35;99607.28;;;2.54;100.00
39891;BME280;25564;53.312;9.790;2023-11-25T08:09:07;99596.78;;;2.54;100.00
39891;BME280;25564;53.312;9.790;2023-11-25T08:11:39;99623.78;;;2.78;100.00
39891;BME280;25564;53.312;9.790;2023-11-25T08:14:10;99639.44;;;2.93;100.00
39891;BME280;25564;53.312;9.790;2023-11-25T08:16:42;99637.69;;;2.92;100.00
39891;BME280;25564;53.312;9.790;2023-11-25T08:19:13;99650.72;;;3.07;100.00
39891;BME280;25564;53.312;9.790;2023-11-25T08:21:46;99631.56;;;2.99;100.00
39891;BME280;25564;53.312;9.790;2023-11-25T08:24:18;99635.00;;;3.07;100.00
39891;BME280;25564;53.312;9.790;2023-11-25T08:26:50;99617.59;;;2.94;100.00
39891;BME280;25564;53.312;9.790;2023-11-25T08:29:21;99624.53;;;3.04;100.00
39891;BME280;25564;53.312;9.790;2023-11-25T08:31:53;99628.88;;;3.08;100.00
39891;BME280;25564;53.312;9.790;2023-11-25T08:34:24;99660.22;;;3.25;100.00
39891;BME280;25564;53.312;9.790;2023-11-25T08:36:55;99638.44;;;3.15;100.00
39891;BME280;25564;53.312;9.790;2023-11-25T08:39:27;99646.25;;;3.23;100.00
39891;BME280;25564;53.312;9.790;2023-11-25T08:41:59;99628.78;;;3.20;100.00
39891;BME280;25564;53.312;9.790;2023-11-25T08:44:30;99612.22;;;3.15;100.00
39891;BME280;25564;53.312;9.790;2023-11-25T08:47:03;99631.38;;;3.29;100.00
39891;BME280;25564;53.312;9.790;2023-11-25T08:49:34;99666.19;;;3.53;100.00
39891;BME280;25564;53.312;9.790;2023-11-25T08:52:06;99644.38;;;3.46;100.00
39891;BME280;25564;53.312;9.790;2023-11-25T08:54:39;99598.19;;;3.25;100.00
39891;BME280;25564;53.312;9.790;2023-11-25T08:57:10;99619.94;;;3.43;100.00
39891;BME280;25564;53.312;9.790;2023-11-25T08:59:44;99676.53;;;3.76;100.00
39891;BME280;25564;53.312;9.790;2023-11-25T09:02:15;99659.09;;;3.70;100.00
39891;BME280;25564;53.312;9.790;2023-11-25T09:04:54;99659.03;;;3.78;100.00
39891;BME280;25564;53.312;9.790;2023-11-25T09:07:39;99659.03;;;3.76;100.00
39891;BME280;25564;53.312;9.790;2023-11-25T09:10:12;99679.00;;;3.97;100.00
39891;BME280;25564;53.312;9.790;2023-11-25T09:12:44;99688.59;;;4.04;100.00
39891;BME280;25564;53.312;9.790;2023-11-25T09:15:19;99667.66;;;3.97;100.00
39891;BME280;25564;53.312;9.790;2023-11-25T09:17:51;99650.22;;;3.86;100.00
39891;BME280;25564;53.312;9.790;2023-11-25T09:20:23;99688.56;;;4.06;100.00
39891;BME280;25564;53.312;9.790;2023-11-25T09:22:55;99695.56;;;4.07;100.00
39891;BME280;25564;53.312;9.790;2023-11-25T09:25:27;99678.19;;;3.92;100.00
39891;BME280;25564;53.312;9.790;2023-11-25T09:28:00;99681.75;;;3.83;100.00
39891;BME280;25564;53.312;9.790;2023-11-25T09:30:32;99678.28;;;3.78;100.00
39891;BME280;25564;53.312;9.790;2023-11-25T09:33:04;99703.47;;;4.02;100.00
39891;BME280;25564;53.312;9.790;2023-11-25T09:35:35;99675.53;;;3.93;100.00
39891;BME280;25564;53.312;9.790;2023-11-25T09:38:07;99665.91;;;3.94;100.00
39891;BME280;25564;53.312;9.790;2023-11-25T09:40:39;99712.94;;;4.20;100.00
39891;BME280;25564;53.312;9.790;2023-11-25T09:43:11;99675.41;;;4.10;100.00
39891;BME280;25564;53.312;9.790;2023-11-25T09:45:44;99687.41;;;4.36;100.00
39891;BME280;25564;53.312;9.790;2023-11-25T09:48:16;99703.03;;;4.51;100.00
39891;BME280;25564;53.312;9.790;2023-11-25T09:50:51;99708.19;;;4.63;100.00
39891;BME280;25564;53.312;9.790;2023-11-25T09:53:29;99696.81;;;4.61;100.00
39891;BME280;25564;53.312;9.790;2023-11-25T09:56:05;99696.78;;;4.63;100.00
39891;BME280;25564;53.312;9.790;2023-11-25T09:58:37;99715.03;;;4.78;100.00
39891;BME280;25564;53.312;9.790;2023-11-25T10:01:10;99715.78;;;4.89;100.00
39891;BME280;25564;53.312;9.790;2023-11-25T10:03:44;99728.91;;;4.92;100.00
39891;BME280;25564;53.312;9.790;2023-11-25T10:06:17;99714.19;;;4.76;100.00
39891;BME280;25564;53.312;9.790;2023-11-25T10:08:49;99714.22;;;4.73;100.00
39891;BME280;25564;53.312;9.790;2023-11-25T10:11:21;99719.47;;;4.71;100.00
39891;BME280;25564;53.312;9.790;2023-11-25T10:13:54;99742.22;;;4.77;100.00
39891;BME280;25564;53.312;9.790;2023-11-25T10:16:26;99739.56;;;4.78;100.00
39891;BME280;25564;53.312;9.790;2023-11-25T10:19:01;99751.81;;;4.79;100.00
39891;BME280;25564;53.312;9.790;2023-11-25T10:21:35;99735.16;;;4.82;100.00
39891;BME280;25564;53.312;9.790;2023-11-25T10:24:07;99709.03;;;4.64;100.00
39891;BME280;25564;53.312;9.790;2023-11-25T10:26:40;99743.78;;;4.93;100.00
39891;BME280;25564;53.312;9.790;2023-11-25T10:29:13;99755.97;;;5.02;100.00
39891;BME280;25564;53.312;9.790;2023-11-25T10:31:44;99716.72;;;4.83;100.00
39891;BME280;25564;53.312;9.790;2023-11-25T10:34:16;99755.00;;;5.12;100.00
39891;BME280;25564;53.312;9.790;2023-11-25T10:36:48;99732.34;;;4.99;100.00
39891;BME280;25564;53.312;9.790;2023-11-25T10:39:22;99744.41;;;5.18;100.00
39891;BME280;25564;53.312;9.790;2023-11-25T10:41:53;99750.41;;;5.28;100.00
39891;BME280;25564;53.312;9.790;2023-11-25T10:44:26;99737.38;;;5.18;100.00
39891;BME280;25564;53.312;9.790;2023-11-25T10:46:59;99748.81;;;5.14;100.00
39891;BME280;25564;53.312;9.790;2023-11-25T10:49:35;99730.44;;;5.11;100.00
39891;BME280;25564;53.312;9.790;2023-11-25T10:52:07;99752.09;;;5.32;100.00
39891;BME280;25564;53.312;9.790;2023-11-25T10:54:39;99755.50;;;5.40;100.00
39891;BME280;25564;53.312;9.790;2023-11-25T10:57:11;99754.53;;;5.48;100.00
39891;BME280;25564;53.312;9.790;2023-11-25T10:59:45;99753.63;;;5.51;100.00
39891;BME280;25564;53.312;9.790;2023-11-25T11:02:25;99748.25;;;5.58;100.00
39891;BME280;25564;53.312;9.790;2023-11-25T11:05:02;99730.75;;;5.56;100.00
39891;BME280;25564;53.312;9.790;2023-11-25T11:07:46;99772.47;;;5.86;100.00
39891;BME280;25564;53.312;9.790;2023-11-25T11:10:25;99752.44;;;5.75;100.00
39891;BME280;25564;53.312;9.790;2023-11-25T11:13:07;99761.13;;;5.80;100.00
39891;BME280;25564;53.312;9.790;2023-11-25T11:15:42;99755.09;;;5.73;100.00
39891;BME280;25564;53.312;9.790;2023-11-25T11:18:19;99784.03;;;5.73;100.00
39891;BME280;25564;53.312;9.790;2023-11-25T11:20:54;99777.97;;;5.68;100.00
39891;BME280;25564;53.312;9.790;2023-11-25T11:23:27;99758.91;;;5.49;100.00
39891;BME280;25564;53.312;9.790;2023-11-25T11:26:01;99779.94;;;5.49;100.00
39891;BME280;25564;53.312;9.790;2023-11-25T11:28:51;99754.81;;;5.25;100.00
39891;BME280;25564;53.312;9.790;2023-11-25T11:31:54;99776.69;;;5.29;100.00
39891;BME280;25564;53.312;9.790;2023-11-25T11:34:32;99789.91;;;5.21;100.00
39891;BME280;25564;53.312;9.790;2023-11-25T11:37:03;99756.03;;;4.97;100.00
39891;BME280;25564;53.312;9.790;2023-11-25T11:45:12;99789.97;;;5.18;100.00
39891;BME280;25564;53.312;9.790;2023-11-25T11:47:58;99805.63;;;5.29;100.00
39891;BME280;25564;53.312;9.790;2023-11-25T11:50:32;99776.84;;;5.18;100.00
39891;BME280;25564;53.312;9.790;2023-11-25T11:55:43;99810.56;;;5.56;100.00
39891;BME280;25564;53.312;9.790;2023-11-25T11:58:18;99808.00;;;5.52;100.00
39891;BME280;25564;53.312;9.790;2023-11-25T12:00:54;99798.56;;;5.33;100.00
39891;BME280;25564;53.312;9.790;2023-11-25T12:03:37;99802.25;;;5.19;100.00
39891;BME280;25564;53.312;9.790;2023-11-25T12:06:09;99803.22;;;5.09;100.00
39891;BME280;25564;53.312;9.790;2023-11-25T12:08:41;99800.63;;;5.05;100.00
39891;BME280;25564;53.312;9.790;2023-11-25T12:11:13;99792.03;;;4.89;100.00
39891;BME280;25564;53.312;9.790;2023-11-25T12:13:44;99821.63;;;5.11;100.00
39891;BME280;25564;53.312;9.790;2023-11-25T12:16:16;99789.28;;;5.00;100.00
39891;BME280;25564;53.312;9.790;2023-11-25T12:18:47;99809.38;;;5.07;100.00
39891;BME280;25564;53.312;9.790;2023-11-25T12:21:18;99798.91;;;5.04;100.00
39891;BME280;25564;53.312;9.790;2023-11-25T12:23:51;99818.94;;;5.15;100.00
39891;BME280;25564;53.312;9.790;2023-11-25T12:26:24;99828.41;;;5.29;100.00
39891;BME280;25564;53.312;9.790;2023-11-25T12:29:00;99815.31;;;5.24;100.00
39891;BME280;25564;53.312;9.790;2023-11-25T12:31:32;99805.75;;;5.18;100.00
39891;BME280;25564;53.312;9.790;2023-11-25T12:34:04;99790.97;;;5.07;100.00
39891;BME280;25564;53.312;9.790;2023-11-25T12:36:36;99826.81;;;5.18;100.00
39891;BME280;25564;53.312;9.790;2023-11-25T12:39:08;99819.81;;;5.16;100.00
39891;BME280;25564;53.312;9.790;2023-11-25T12:41:43;99825.03;;;5.19;100.00
39891;BME280;25564;53.312;9.790;2023-11-25T12:44:15;99832.88;;;5.22;100.00
39891;BME280;25564;53.312;9.790;2023-11-25T12:47:02;99835.63;;;5.13;100.00
39891;BME280;25564;53.312;9.790;2023-11-25T12:49:35;99841.78;;;5.10;100.00
39891;BME280;25564;53.312;9.790;2023-11-25T12:52:06;99838.38;;;4.99;100.00
39891;BME280;25564;53.312;9.790;2023-11-25T12:54:48;99842.81;;;4.94;100.00
39891;BME280;25564;53.312;9.790;2023-11-25T12:57:25;99843.75;;;4.87;100.00
39891;BME280;25564;53.312;9.790;2023-11-25T13:00:10;99830.72;;;4.73;100.00
39891;BME280;25564;53.312;9.790;2023-11-25T13:02:45;99828.09;;;4.72;100.00
39891;BME280;25564;53.312;9.790;2023-11-25T13:05:20;99817.63;;;4.66;100.00
39891;BME280;25564;53.312;9.790;2023-11-25T13:07:55;99843.81;;;4.78;100.00
39891;BME280;25564;53.312;9.790;2023-11-25T13:10:26;99821.16;;;4.65;100.00
39891;BME280;25564;53.312;9.790;2023-11-25T13:12:58;99850.78;;;4.83;100.00
39891;BME280;25564;53.312;9.790;2023-11-25T13:15:29;99842.09;;;4.74;100.00
39891;BME280;25564;53.312;9.790;2023-11-25T13:18:01;99844.72;;;4.75;100.00
39891;BME280;25564;53.312;9.790;2023-11-25T13:20:32;99869.16;;;4.85;100.00
39891;BME280;25564;53.312;9.790;2023-11-25T13:23:05;99879.66;;;4.88;100.00
39891;BME280;25564;53.312;9.790;2023-11-25T13:25:37;99880.59;;;4.81;100.00
39891;BME280;25564;53.312;9.790;2023-11-25T13:28:08;99865.75;;;4.74;100.00
39891;BME280;25564;53.312;9.790;2023-11-25T13:30:41;99892.81;;;4.85;100.00
39891;BME280;25564;53.312;9.790;2023-11-25T13:33:13;99883.28;;;4.73;100.00
39891;BME280;25564;53.312;9.790;2023-11-25T13:35:47;99878.03;;;4.72;100.00